sensor_id;sensor_type;location;lat;lon;timestamp;P1;durP1;ratioP1;P2;durP2;ratioP2
80981;SDS011;70440;53.064;8.926;2023-07-28T00:01:32;0.13;;;0.13;;
80981;SDS011;70440;53.064;8.926;2023-07-28T00:03:57;0.10;;;0.10;;
80981;SDS011;70440;53.064;8.926;2023-07-28T00:06:22;0.00;;;0.00;;
80981;SDS011;70440;53.064;8.926;2023-07-28T00:08:48;0.10;;;0.10;;
80981;SDS011;70440;53.064;8.926;2023-07-28T00:11:14;0.10;;;0.10;;
80981;SDS011;70440;53.064;8.926;2023-07-28T00:13:40;0.10;;;0.10;;
80981;SDS011;70440;53.064;8.926;2023-07-28T00:16:06;0.20;;;0.20;;
80981;SDS011;70440;53.064;8.926;2023-07-28T00:18:32;0.30;;;0.10;;
80981;SDS011;70440;53.064;8.926;2023-07-28T00:20:58;0.10;;;0.10;;
80981;SDS011;70440;53.064;8.926;2023-07-28T00:23:23;0.10;;;0.10;;
80981;SDS011;70440;53.064;8.926;2023-07-28T00:25:49;0.00;;;0.00;;
80981;SDS011;70440;53.064;8.926;2023-07-28T00:28:14;0.10;;;0.10;;
80981;SDS011;70440;53.064;8.926;2023-07-28T00:30:40;0.10;;;0.10;;
80981;SDS011;70440;53.064;8.926;2023-07-28T00:33:05;0.10;;;0.10;;
80981;SDS011;70440;53.064;8.926;2023-07-28T00:35:30;0.10;;;0.10;;
80981;SDS011;70440;53.064;8.926;2023-07-28T00:37:56;0.30;;;0.30;;
80981;SDS011;70440;53.064;8.926;2023-07-28T00:40:22;0.08;;;0.08;;
80981;SDS011;70440;53.064;8.926;2023-07-28T00:42:47;0.20;;;0.20;;
80981;SDS011;70440;53.064;8.926;2023-07-28T00:45:13;0.40;;;0.10;;
80981;SDS011;70440;53.064;8.926;2023-07-28T00:47:38;0.10;;;0.10;;
80981;SDS011;70440;53.064;8.926;2023-07-28T00:50:04;0.20;;;0.20;;
80981;SDS011;70440;53.064;8.926;2023-07-28T00:52:30;0.28;;;0.22;;
80981;SDS011;70440;53.064;8.926;2023-07-28T00:54:55;0.20;;;0.20;;
80981;SDS011;70440;53.064;8.926;2023-07-28T00:57:20;0.05;;;0.05;;
80981;SDS011;70440;53.064;8.926;2023-07-28T00:59:46;0.13;;;0.13;;
80981;SDS011;70440;53.064;8.926;2023-07-28T01:02:12;0.10;;;0.10;;
80981;SDS011;70440;53.064;8.926;2023-07-28T01:04:37;0.13;;;0.13;;
80981;SDS011;70440;53.064;8.926;2023-07-28T01:07:04;0.50;;;0.10;;
80981;SDS011;70440;53.064;8.926;2023-07-28T01:09:34;0.20;;;0.20;;
80981;SDS011;70440;53.064;8.926;2023-07-28T01:12:08;0.20;;;0.20;;
80981;SDS011;70440;53.064;8.926;2023-07-28T01:14:36;0.25;;;0.20;;
80981;SDS011;70440;53.064;8.926;2023-07-28T01:17:01;0.10;;;0.10;;
80981;SDS011;70440;53.064;8.926;2023-07-28T01:19:27;0.28;;;0.28;;
80981;SDS011;70440;53.064;8.926;2023-07-28T01:27:45;0.20;;;0.20;;
80981;SDS011;70440;53.064;8.926;2023-07-28T01:30:11;0.10;;;0.10;;
80981;SDS011;70440;53.064;8.926;2023-07-28T01:32:36;0.22;;;0.20;;
80981;SDS011;70440;53.064;8.926;2023-07-28T01:35:02;0.20;;;0.20;;
80981;SDS011;70440;53.064;8.926;2023-07-28T01:37:28;0.20;;;0.20;;
80981;SDS011;70440;53.064;8.926;2023-07-28T01:39:54;0.17;;;0.17;;
80981;SDS011;70440;53.064;8.926;2023-07-28T01:42:19;0.38;;;0.30;;
80981;SDS011;70440;53.064;8.926;2023-07-28T01:44:45;0.10;;;0.10;;
80981;SDS011;70440;53.064;8.926;2023-07-28T01:47:10;0.30;;;0.30;;
80981;SDS011;70440;53.064;8.926;2023-07-28T01:49:36;0.47;;;0.40;;
80981;SDS011;70440;53.064;8.926;2023-07-28T01:52:01;0.20;;;0.20;;
80981;SDS011;70440;53.064;8.926;2023-07-28T01:54:26;0.20;;;0.20;;
80981;SDS011;70440;53.064;8.926;2023-07-28T01:56:52;0.38;;;0.30;;
80981;SDS011;70440;53.064;8.926;2023-07-28T01:59:17;0.13;;;0.10;;
80981;SDS011;70440;53.064;8.926;2023-07-28T02:01:43;0.20;;;0.20;;
80981;SDS011;70440;53.064;8.926;2023-07-28T02:04:08;0.20;;;0.20;;
80981;SDS011;70440;53.064;8.926;2023-07-28T02:06:34;0.30;;;0.30;;
80981;SDS011;70440;53.064;8.926;2023-07-28T02:08:59;0.17;;;0.17;;
80981;SDS011;70440;53.064;8.926;2023-07-28T02:11:24;0.17;;;0.17;;
80981;SDS011;70440;53.064;8.926;2023-07-28T02:13:50;0.30;;;0.30;;
80981;SDS011;70440;53.064;8.926;2023-07-28T02:16:15;0.17;;;0.15;;
80981;SDS011;70440;53.064;8.926;2023-07-28T02:18:41;0.30;;;0.30;;
80981;SDS011;70440;53.064;8.926;2023-07-28T02:21:08;0.22;;;0.22;;
80981;SDS011;70440;53.064;8.926;2023-07-28T02:23:33;0.20;;;0.20;;
80981;SDS011;70440;53.064;8.926;2023-07-28T02:25:59;0.30;;;0.30;;
80981;SDS011;70440;53.064;8.926;2023-07-28T02:28:24;0.50;;;0.40;;
80981;SDS011;70440;53.064;8.926;2023-07-28T02:30:49;0.17;;;0.17;;
80981;SDS011;70440;53.064;8.926;2023-07-28T02:33:15;0.40;;;0.40;;
80981;SDS011;70440;53.064;8.926;2023-07-28T02:35:40;0.20;;;0.20;;
80981;SDS011;70440;53.064;8.926;2023-07-28T02:38:05;0.30;;;0.30;;
80981;SDS011;70440;53.064;8.926;2023-07-28T02:40:31;0.20;;;0.20;;
80981;SDS011;70440;53.064;8.926;2023-07-28T02:42:57;0.30;;;0.30;;
80981;SDS011;70440;53.064;8.926;2023-07-28T02:45:23;0.30;;;0.30;;
80981;SDS011;70440;53.064;8.926;2023-07-28T02:47:49;0.30;;;0.30;;
80981;SDS011;70440;53.064;8.926;2023-07-28T02:50:15;0.22;;;0.22;;
80981;SDS011;70440;53.064;8.926;2023-07-28T02:52:40;0.30;;;0.20;;
80981;SDS011;70440;53.064;8.926;2023-07-28T02:55:06;0.65;;;0.47;;
80981;SDS011;70440;53.064;8.926;2023-07-28T02:57:31;0.35;;;0.20;;
80981;SDS011;70440;53.064;8.926;2023-07-28T02:59:57;0.20;;;0.20;;
80981;SDS011;70440;53.064;8.926;2023-07-28T03:02:22;0.40;;;0.38;;
80981;SDS011;70440;53.064;8.926;2023-07-28T03:04:47;0.30;;;0.30;;
80981;SDS011;70440;53.064;8.926;2023-07-28T03:07:12;0.22;;;0.22;;
80981;SDS011;70440;53.064;8.926;2023-07-28T03:09:38;0.28;;;0.28;;
80981;SDS011;70440;53.064;8.926;2023-07-28T03:12:03;0.30;;;0.30;;
80981;SDS011;70440;53.064;8.926;2023-07-28T03:14:30;0.30;;;0.30;;
80981;SDS011;70440;53.064;8.926;2023-07-28T03:16:56;0.43;;;0.40;;
80981;SDS011;70440;53.064;8.926;2023-07-28T03:19:22;0.70;;;0.35;;
80981;SDS011;70440;53.064;8.926;2023-07-28T03:21:47;0.28;;;0.28;;
80981;SDS011;70440;53.064;8.926;2023-07-28T03:24:13;0.30;;;0.30;;
80981;SDS011;70440;53.064;8.926;2023-07-28T03:26:38;0.32;;;0.32;;
80981;SDS011;70440;53.064;8.926;2023-07-28T03:29:03;0.17;;;0.17;;
80981;SDS011;70440;53.064;8.926;2023-07-28T03:31:29;0.30;;;0.30;;
80981;SDS011;70440;53.064;8.926;2023-07-28T03:33:54;0.25;;;0.10;;
80981;SDS011;70440;53.064;8.926;2023-07-28T03:36:20;0.57;;;0.57;;
80981;SDS011;70440;53.064;8.926;2023-07-28T03:38:45;2.88;;;1.70;;
80981;SDS011;70440;53.064;8.926;2023-07-28T03:41:12;2.38;;;1.67;;
80981;SDS011;70440;53.064;8.926;2023-07-28T03:43:37;1.88;;;0.95;;
80981;SDS011;70440;53.064;8.926;2023-07-28T03:46:03;0.68;;;0.60;;
80981;SDS011;70440;53.064;8.926;2023-07-28T03:48:28;0.60;;;0.40;;
80981;SDS011;70440;53.064;8.926;2023-07-28T03:50:53;0.80;;;0.70;;
80981;SDS011;70440;53.064;8.926;2023-07-28T03:53:19;1.10;;;0.77;;
80981;SDS011;70440;53.064;8.926;2023-07-28T03:55:44;0.50;;;0.32;;
80981;SDS011;70440;53.064;8.926;2023-07-28T03:58:09;0.60;;;0.60;;
80981;SDS011;70440;53.064;8.926;2023-07-28T04:00:34;0.50;;;0.30;;
80981;SDS011;70440;53.064;8.926;2023-07-28T04:03:00;0.55;;;0.40;;
80981;SDS011;70440;53.064;8.926;2023-07-28T04:05:25;0.30;;;0.30;;
80981;SDS011;70440;53.064;8.926;2023-07-28T04:07:50;0.20;;;0.20;;
80981;SDS011;70440;53.064;8.926;2023-07-28T04:10:16;0.15;;;0.10;;
80981;SDS011;70440;53.064;8.926;2023-07-28T04:12:41;0.22;;;0.22;;
80981;SDS011;70440;53.064;8.926;2023-07-28T04:15:07;0.10;;;0.10;;
80981;SDS011;70440;53.064;8.926;2023-07-28T04:17:32;0.10;;;0.10;;
80981;SDS011;70440;53.064;8.926;2023-07-28T04:19:58;0.22;;;0.22;;
80981;SDS011;70440;53.064;8.926;2023-07-28T04:22:23;0.20;;;0.20;;
80981;SDS011;70440;53.064;8.926;2023-07-28T04:24:49;0.28;;;0.28;;
80981;SDS011;70440;53.064;8.926;2023-07-28T04:27:14;0.28;;;0.28;;
80981;SDS011;70440;53.064;8.926;2023-07-28T04:29:40;0.50;;;0.50;;
80981;SDS011;70440;53.064;8.926;2023-07-28T04:32:06;0.20;;;0.20;;
80981;SDS011;70440;53.064;8.926;2023-07-28T04:34:34;0.35;;;0.35;;
80981;SDS011;70440;53.064;8.926;2023-07-28T04:39:25;0.57;;;0.30;;
80981;SDS011;70440;53.064;8.926;2023-07-28T04:41:50;0.40;;;0.32;;
80981;SDS011;70440;53.064;8.926;2023-07-28T04:44:16;0.50;;;0.47;;
80981;SDS011;70440;53.064;8.926;2023-07-28T04:46:42;0.57;;;0.47;;
80981;SDS011;70440;53.064;8.926;2023-07-28T04:49:08;0.40;;;0.40;;
80981;SDS011;70440;53.064;8.926;2023-07-28T04:51:33;0.40;;;0.40;;
80981;SDS011;70440;53.064;8.926;2023-07-28T04:53:58;0.40;;;0.40;;
80981;SDS011;70440;53.064;8.926;2023-07-28T04:56:24;0.40;;;0.30;;
80981;SDS011;70440;53.064;8.926;2023-07-28T04:58:49;0.32;;;0.32;;
80981;SDS011;70440;53.064;8.926;2023-07-28T05:01:14;0.50;;;0.50;;
80981;SDS011;70440;53.064;8.926;2023-07-28T05:03:40;0.40;;;0.40;;
80981;SDS011;70440;53.064;8.926;2023-07-28T05:06:06;0.40;;;0.40;;
80981;SDS011;70440;53.064;8.926;2023-07-28T05:08:31;0.60;;;0.50;;
80981;SDS011;70440;53.064;8.926;2023-07-28T05:10:56;0.50;;;0.50;;
80981;SDS011;70440;53.064;8.926;2023-07-28T05:13:22;0.45;;;0.32;;
80981;SDS011;70440;53.064;8.926;2023-07-28T05:15:47;0.90;;;0.40;;
80981;SDS011;70440;53.064;8.926;2023-07-28T05:18:12;0.40;;;0.40;;
80981;SDS011;70440;53.064;8.926;2023-07-28T05:20:38;0.50;;;0.50;;
80981;SDS011;70440;53.064;8.926;2023-07-28T05:23:03;0.30;;;0.30;;
80981;SDS011;70440;53.064;8.926;2023-07-28T05:25:28;0.40;;;0.40;;
80981;SDS011;70440;53.064;8.926;2023-07-28T05:27:54;0.93;;;0.45;;
80981;SDS011;70440;53.064;8.926;2023-07-28T05:30:19;0.43;;;0.43;;
80981;SDS011;70440;53.064;8.926;2023-07-28T05:32:45;0.40;;;0.30;;
80981;SDS011;70440;53.064;8.926;2023-07-28T05:35:11;0.40;;;0.40;;
80981;SDS011;70440;53.064;8.926;2023-07-28T05:37:37;0.52;;;0.43;;
80981;SDS011;70440;53.064;8.926;2023-07-28T05:40:02;0.20;;;0.20;;
80981;SDS011;70440;53.064;8.926;2023-07-28T05:42:28;0.10;;;0.10;;
80981;SDS011;70440;53.064;8.926;2023-07-28T05:44:53;0.20;;;0.20;;
80981;SDS011;70440;53.064;8.926;2023-07-28T05:47:20;0.20;;;0.20;;
80981;SDS011;70440;53.064;8.926;2023-07-28T05:49:46;0.80;;;0.30;;
80981;SDS011;70440;53.064;8.926;2023-07-28T05:52:11;0.20;;;0.20;;
80981;SDS011;70440;53.064;8.926;2023-07-28T05:54:36;0.20;;;0.20;;
80981;SDS011;70440;53.064;8.926;2023-07-28T05:57:02;0.20;;;0.20;;
80981;SDS011;70440;53.064;8.926;2023-07-28T05:59:27;0.30;;;0.30;;
80981;SDS011;70440;53.064;8.926;2023-07-28T06:01:53;0.47;;;0.47;;
80981;SDS011;70440;53.064;8.926;2023-07-28T06:04:18;0.60;;;0.60;;
80981;SDS011;70440;53.064;8.926;2023-07-28T06:06:43;0.40;;;0.40;;
80981;SDS011;70440;53.064;8.926;2023-07-28T06:09:09;1.35;;;0.77;;
80981;SDS011;70440;53.064;8.926;2023-07-28T06:11:39;0.45;;;0.40;;
80981;SDS011;70440;53.064;8.926;2023-07-28T06:14:04;0.52;;;0.52;;
80981;SDS011;70440;53.064;8.926;2023-07-28T06:16:30;0.57;;;0.57;;
80981;SDS011;70440;53.064;8.926;2023-07-28T06:18:56;1.45;;;0.50;;
80981;SDS011;70440;53.064;8.926;2023-07-28T06:21:21;1.13;;;0.80;;
80981;SDS011;70440;53.064;8.926;2023-07-28T06:23:46;1.00;;;0.60;;
80981;SDS011;70440;53.064;8.926;2023-07-28T06:26:12;1.10;;;0.90;;
80981;SDS011;70440;53.064;8.926;2023-07-28T06:28:37;1.00;;;0.90;;
80981;SDS011;70440;53.064;8.926;2023-07-28T06:31:03;1.27;;;0.75;;
80981;SDS011;70440;53.064;8.926;2023-07-28T06:33:28;0.85;;;0.68;;
80981;SDS011;70440;53.064;8.926;2023-07-28T06:35:54;0.93;;;0.70;;
80981;SDS011;70440;53.064;8.926;2023-07-28T06:38:19;0.80;;;0.75;;
80981;SDS011;70440;53.064;8.926;2023-07-28T06:40:45;0.88;;;0.63;;
80981;SDS011;70440;53.064;8.926;2023-07-28T06:43:10;1.23;;;1.13;;
80981;SDS011;70440;53.064;8.926;2023-07-28T06:45:35;1.25;;;0.60;;
80981;SDS011;70440;53.064;8.926;2023-07-28T06:48:01;0.73;;;0.73;;
80981;SDS011;70440;53.064;8.926;2023-07-28T06:50:26;1.25;;;0.90;;
80981;SDS011;70440;53.064;8.926;2023-07-28T06:52:51;1.55;;;0.93;;
80981;SDS011;70440;53.064;8.926;2023-07-28T06:55:17;0.70;;;0.60;;
80981;SDS011;70440;53.064;8.926;2023-07-28T06:57:43;1.05;;;0.80;;
80981;SDS011;70440;53.064;8.926;2023-07-28T07:00:08;1.55;;;1.10;;
80981;SDS011;70440;53.064;8.926;2023-07-28T07:02:34;1.35;;;1.10;;
80981;SDS011;70440;53.064;8.926;2023-07-28T07:05:00;2.08;;;0.90;;
80981;SDS011;70440;53.064;8.926;2023-07-28T07:07:26;0.88;;;0.70;;
80981;SDS011;70440;53.064;8.926;2023-07-28T07:09:53;1.20;;;1.10;;
80981;SDS011;70440;53.064;8.926;2023-07-28T07:12:20;1.08;;;0.90;;
80981;SDS011;70440;53.064;8.926;2023-07-28T07:14:46;0.98;;;0.85;;
80981;SDS011;70440;53.064;8.926;2023-07-28T07:17:11;1.13;;;1.02;;
80981;SDS011;70440;53.064;8.926;2023-07-28T07:19:37;1.10;;;1.00;;
80981;SDS011;70440;53.064;8.926;2023-07-28T07:22:02;1.38;;;1.02;;
80981;SDS011;70440;53.064;8.926;2023-07-28T07:24:27;1.00;;;0.90;;
80981;SDS011;70440;53.064;8.926;2023-07-28T07:26:53;0.93;;;0.80;;
80981;SDS011;70440;53.064;8.926;2023-07-28T07:29:19;0.80;;;0.80;;
80981;SDS011;70440;53.064;8.926;2023-07-28T07:31:44;1.35;;;0.98;;
80981;SDS011;70440;53.064;8.926;2023-07-28T07:34:09;1.70;;;1.40;;
80981;SDS011;70440;53.064;8.926;2023-07-28T07:36:35;1.42;;;1.00;;
80981;SDS011;70440;53.064;8.926;2023-07-28T07:39:00;0.98;;;0.93;;
80981;SDS011;70440;53.064;8.926;2023-07-28T07:41:26;1.02;;;0.93;;
80981;SDS011;70440;53.064;8.926;2023-07-28T07:43:52;0.95;;;0.77;;
80981;SDS011;70440;53.064;8.926;2023-07-28T07:46:18;0.70;;;0.70;;
80981;SDS011;70440;53.064;8.926;2023-07-28T07:48:44;1.35;;;1.25;;
80981;SDS011;70440;53.064;8.926;2023-07-28T07:51:10;1.80;;;1.40;;
80981;SDS011;70440;53.064;8.926;2023-07-28T07:53:35;2.15;;;1.30;;
80981;SDS011;70440;53.064;8.926;2023-07-28T07:56:01;1.50;;;1.15;;
80981;SDS011;70440;53.064;8.926;2023-07-28T07:58:27;1.70;;;1.00;;
80981;SDS011;70440;53.064;8.926;2023-07-28T08:00:54;1.02;;;0.93;;
80981;SDS011;70440;53.064;8.926;2023-07-28T08:03:19;1.00;;;0.93;;
80981;SDS011;70440;53.064;8.926;2023-07-28T08:05:45;1.30;;;1.10;;
80981;SDS011;70440;53.064;8.926;2023-07-28T08:08:10;1.60;;;0.98;;
80981;SDS011;70440;53.064;8.926;2023-07-28T08:10:36;0.80;;;0.70;;
80981;SDS011;70440;53.064;8.926;2023-07-28T08:13:01;0.85;;;0.85;;
80981;SDS011;70440;53.064;8.926;2023-07-28T08:15:29;0.88;;;0.82;;
80981;SDS011;70440;53.064;8.926;2023-07-28T08:17:54;1.05;;;0.93;;
80981;SDS011;70440;53.064;8.926;2023-07-28T08:20:19;0.75;;;0.75;;
80981;SDS011;70440;53.064;8.926;2023-07-28T08:22:45;1.23;;;0.88;;
80981;SDS011;70440;53.064;8.926;2023-07-28T08:25:10;1.02;;;0.93;;
80981;SDS011;70440;53.064;8.926;2023-07-28T08:27:35;0.80;;;0.70;;
80981;SDS011;70440;53.064;8.926;2023-07-28T08:30:01;1.08;;;0.98;;
80981;SDS011;70440;53.064;8.926;2023-07-28T08:32:27;3.42;;;1.20;;
80981;SDS011;70440;53.064;8.926;2023-07-28T08:34:53;0.85;;;0.85;;
80981;SDS011;70440;53.064;8.926;2023-07-28T08:37:18;0.98;;;0.65;;
80981;SDS011;70440;53.064;8.926;2023-07-28T08:39:44;0.57;;;0.57;;
80981;SDS011;70440;53.064;8.926;2023-07-28T08:42:12;1.00;;;0.90;;
80981;SDS011;70440;53.064;8.926;2023-07-28T08:44:37;0.95;;;0.95;;
80981;SDS011;70440;53.064;8.926;2023-07-28T08:47:03;2.10;;;1.10;;
80981;SDS011;70440;53.064;8.926;2023-07-28T08:49:29;0.60;;;0.60;;
80981;SDS011;70440;53.064;8.926;2023-07-28T08:51:58;2.00;;;0.85;;
80981;SDS011;70440;53.064;8.926;2023-07-28T08:54:23;1.00;;;0.90;;
80981;SDS011;70440;53.064;8.926;2023-07-28T08:56:49;1.20;;;1.10;;
80981;SDS011;70440;53.064;8.926;2023-07-28T08:59:21;1.45;;;1.00;;
80981;SDS011;70440;53.064;8.926;2023-07-28T09:01:49;0.93;;;0.93;;
80981;SDS011;70440;53.064;8.926;2023-07-28T09:04:15;1.00;;;0.90;;
80981;SDS011;70440;53.064;8.926;2023-07-28T09:06:44;0.40;;;0.40;;
80981;SDS011;70440;53.064;8.926;2023-07-28T09:09:10;1.10;;;0.80;;
80981;SDS011;70440;53.064;8.926;2023-07-28T09:11:43;1.40;;;1.17;;
80981;SDS011;70440;53.064;8.926;2023-07-28T09:14:11;0.80;;;0.80;;
80981;SDS011;70440;53.064;8.926;2023-07-28T09:16:37;0.85;;;0.68;;
80981;SDS011;70440;53.064;8.926;2023-07-28T09:19:06;0.82;;;0.82;;
80981;SDS011;70440;53.064;8.926;2023-07-28T09:21:32;0.80;;;0.80;;
80981;SDS011;70440;53.064;8.926;2023-07-28T09:24:03;0.95;;;0.88;;
80981;SDS011;70440;53.064;8.926;2023-07-28T09:26:45;1.25;;;0.95;;
80981;SDS011;70440;53.064;8.926;2023-07-28T09:29:18;1.00;;;0.90;;
80981;SDS011;70440;53.064;8.926;2023-07-28T09:31:45;1.45;;;1.33;;
80981;SDS011;70440;53.064;8.926;2023-07-28T09:34:12;1.52;;;0.80;;
80981;SDS011;70440;53.064;8.926;2023-07-28T09:36:38;1.48;;;0.98;;
80981;SDS011;70440;53.064;8.926;2023-07-28T09:39:05;1.20;;;0.90;;
80981;SDS011;70440;53.064;8.926;2023-07-28T09:41:37;0.80;;;0.80;;
80981;SDS011;70440;53.064;8.926;2023-07-28T09:44:03;0.70;;;0.65;;
80981;SDS011;70440;53.064;8.926;2023-07-28T09:46:30;2.80;;;1.10;;
80981;SDS011;70440;53.064;8.926;2023-07-28T09:48:59;0.82;;;0.68;;
80981;SDS011;70440;53.064;8.926;2023-07-28T09:51:27;0.77;;;0.77;;
80981;SDS011;70440;53.064;8.926;2023-07-28T09:54:03;0.75;;;0.75;;
80981;SDS011;70440;53.064;8.926;2023-07-28T09:56:30;0.63;;;0.60;;
80981;SDS011;70440;53.064;8.926;2023-07-28T09:58:56;0.80;;;0.80;;
80981;SDS011;70440;53.064;8.926;2023-07-28T10:01:23;1.08;;;1.02;;
80981;SDS011;70440;53.064;8.926;2023-07-28T10:03:48;0.70;;;0.70;;
80981;SDS011;70440;53.064;8.926;2023-07-28T10:06:14;0.68;;;0.63;;
80981;SDS011;70440;53.064;8.926;2023-07-28T10:08:41;0.82;;;0.70;;
80981;SDS011;70440;53.064;8.926;2023-07-28T10:11:07;0.70;;;0.60;;
80981;SDS011;70440;53.064;8.926;2023-07-28T10:13:39;1.35;;;0.70;;
80981;SDS011;70440;53.064;8.926;2023-07-28T10:16:07;0.75;;;0.65;;
80981;SDS011;70440;53.064;8.926;2023-07-28T10:18:34;0.73;;;0.63;;
80981;SDS011;70440;53.064;8.926;2023-07-28T10:21:06;0.60;;;0.60;;
80981;SDS011;70440;53.064;8.926;2023-07-28T10:23:34;0.55;;;0.50;;
80981;SDS011;70440;53.064;8.926;2023-07-28T10:26:03;0.70;;;0.60;;
80981;SDS011;70440;53.064;8.926;2023-07-28T10:31:09;0.50;;;0.50;;
80981;SDS011;70440;53.064;8.926;2023-07-28T10:33:39;0.63;;;0.60;;
80981;SDS011;70440;53.064;8.926;2023-07-28T10:41:40;0.43;;;0.43;;
80981;SDS011;70440;53.064;8.926;2023-07-28T10:44:25;0.50;;;0.50;;
80981;SDS011;70440;53.064;8.926;2023-07-28T10:46:52;0.40;;;0.40;;
80981;SDS011;70440;53.064;8.926;2023-07-28T10:49:17;0.40;;;0.40;;
80981;SDS011;70440;53.064;8.926;2023-07-28T10:51:43;0.32;;;0.30;;
80981;SDS011;70440;53.064;8.926;2023-07-28T10:54:08;0.77;;;0.60;;
80981;SDS011;70440;53.064;8.926;2023-07-28T10:56:33;0.98;;;0.60;;
80981;SDS011;70440;53.064;8.926;2023-07-28T10:59:03;1.10;;;0.60;;
80981;SDS011;70440;53.064;8.926;2023-07-28T11:01:33;0.75;;;0.50;;
80981;SDS011;70440;53.064;8.926;2023-07-28T11:04:35;0.40;;;0.40;;
80981;SDS011;70440;53.064;8.926;2023-07-28T11:06:54;0.32;;;0.32;;
80981;SDS011;70440;53.064;8.926;2023-07-28T11:09:21;0.70;;;0.55;;
80981;SDS011;70440;53.064;8.926;2023-07-28T11:11:48;0.40;;;0.40;;
80981;SDS011;70440;53.064;8.926;2023-07-28T11:14:17;0.47;;;0.47;;
80981;SDS011;70440;53.064;8.926;2023-07-28T11:16:42;0.47;;;0.30;;
80981;SDS011;70440;53.064;8.926;2023-07-28T11:19:10;0.35;;;0.35;;
80981;SDS011;70440;53.064;8.926;2023-07-28T11:21:37;1.05;;;0.50;;
80981;SDS011;70440;53.064;8.926;2023-07-28T11:24:06;0.30;;;0.30;;
80981;SDS011;70440;53.064;8.926;2023-07-28T11:26:34;0.30;;;0.30;;
80981;SDS011;70440;53.064;8.926;2023-07-28T11:28:59;0.20;;;0.20;;
80981;SDS011;70440;53.064;8.926;2023-07-28T11:31:25;0.30;;;0.30;;
80981;SDS011;70440;53.064;8.926;2023-07-28T11:33:51;0.52;;;0.40;;
80981;SDS011;70440;53.064;8.926;2023-07-28T11:36:23;0.50;;;0.30;;
80981;SDS011;70440;53.064;8.926;2023-07-28T11:38:50;0.30;;;0.30;;
80981;SDS011;70440;53.064;8.926;2023-07-28T11:41:15;0.32;;;0.32;;
80981;SDS011;70440;53.064;8.926;2023-07-28T11:43:41;0.40;;;0.30;;
80981;SDS011;70440;53.064;8.926;2023-07-28T11:51:48;0.30;;;0.30;;
80981;SDS011;70440;53.064;8.926;2023-07-28T11:54:15;0.20;;;0.20;;
80981;SDS011;70440;53.064;8.926;2023-07-28T11:56:45;0.32;;;0.32;;
80981;SDS011;70440;53.064;8.926;2023-07-28T11:59:11;0.22;;;0.22;;
80981;SDS011;70440;53.064;8.926;2023-07-28T12:04:23;0.25;;;0.25;;
80981;SDS011;70440;53.064;8.926;2023-07-28T12:07:14;0.30;;;0.30;;
80981;SDS011;70440;53.064;8.926;2023-07-28T12:12:22;0.30;;;0.30;;
80981;SDS011;70440;53.064;8.926;2023-07-28T12:14:49;0.30;;;0.30;;
80981;SDS011;70440;53.064;8.926;2023-07-28T12:17:19;0.10;;;0.10;;
80981;SDS011;70440;53.064;8.926;2023-07-28T12:19:57;0.40;;;0.40;;
80981;SDS011;70440;53.064;8.926;2023-07-28T12:22:39;0.30;;;0.30;;
80981;SDS011;70440;53.064;8.926;2023-07-28T12:25:07;0.47;;;0.17;;
80981;SDS011;70440;53.064;8.926;2023-07-28T12:27:33;0.25;;;0.20;;
80981;SDS011;70440;53.064;8.926;2023-07-28T12:29:59;0.70;;;0.30;;
80981;SDS011;70440;53.064;8.926;2023-07-28T12:32:25;0.20;;;0.20;;
80981;SDS011;70440;53.064;8.926;2023-07-28T12:34:50;0.20;;;0.20;;
80981;SDS011;70440;53.064;8.926;2023-07-28T12:37:19;0.40;;;0.40;;
80981;SDS011;70440;53.064;8.926;2023-07-28T12:39:45;0.20;;;0.20;;
80981;SDS011;70440;53.064;8.926;2023-07-28T12:42:11;0.38;;;0.30;;
80981;SDS011;70440;53.064;8.926;2023-07-28T12:44:37;0.20;;;0.13;;
80981;SDS011;70440;53.064;8.926;2023-07-28T12:47:02;0.20;;;0.20;;
80981;SDS011;70440;53.064;8.926;2023-07-28T12:49:28;0.20;;;0.15;;
80981;SDS011;70440;53.064;8.926;2023-07-28T12:51:54;0.30;;;0.30;;
80981;SDS011;70440;53.064;8.926;2023-07-28T12:54:21;0.22;;;0.22;;
80981;SDS011;70440;53.064;8.926;2023-07-28T12:56:47;0.40;;;0.32;;
80981;SDS011;70440;53.064;8.926;2023-07-28T12:59:13;0.20;;;0.20;;
80981;SDS011;70440;53.064;8.926;2023-07-28T13:01:38;0.17;;;0.17;;
80981;SDS011;70440;53.064;8.926;2023-07-28T13:04:04;0.28;;;0.25;;
80981;SDS011;70440;53.064;8.926;2023-07-28T13:06:29;0.38;;;0.30;;
80981;SDS011;70440;53.064;8.926;2023-07-28T13:08:54;0.10;;;0.10;;
80981;SDS011;70440;53.064;8.926;2023-07-28T13:11:20;0.20;;;0.20;;
80981;SDS011;70440;53.064;8.926;2023-07-28T13:13:45;0.30;;;0.30;;
80981;SDS011;70440;53.064;8.926;2023-07-28T13:16:10;0.30;;;0.30;;
80981;SDS011;70440;53.064;8.926;2023-07-28T13:18:36;0.30;;;0.30;;
80981;SDS011;70440;53.064;8.926;2023-07-28T13:21:01;0.20;;;0.20;;
80981;SDS011;70440;53.064;8.926;2023-07-28T13:23:27;0.28;;;0.28;;
80981;SDS011;70440;53.064;8.926;2023-07-28T13:25:52;0.20;;;0.20;;
80981;SDS011;70440;53.064;8.926;2023-07-28T13:28:17;0.20;;;0.20;;
80981;SDS011;70440;53.064;8.926;2023-07-28T13:30:43;0.10;;;0.10;;
80981;SDS011;70440;53.064;8.926;2023-07-28T13:33:08;0.30;;;0.30;;
80981;SDS011;70440;53.064;8.926;2023-07-28T13:35:34;0.28;;;0.28;;
80981;SDS011;70440;53.064;8.926;2023-07-28T13:37:59;0.10;;;0.10;;
80981;SDS011;70440;53.064;8.926;2023-07-28T13:40:24;0.20;;;0.20;;
80981;SDS011;70440;53.064;8.926;2023-07-28T13:42:49;0.50;;;0.32;;
80981;SDS011;70440;53.064;8.926;2023-07-28T13:45:15;0.20;;;0.20;;
80981;SDS011;70440;53.064;8.926;2023-07-28T13:47:40;1.92;;;1.05;;
80981;SDS011;70440;53.064;8.926;2023-07-28T13:50:06;0.35;;;0.32;;
80981;SDS011;70440;53.064;8.926;2023-07-28T13:52:32;0.35;;;0.35;;
80981;SDS011;70440;53.064;8.926;2023-07-28T13:54:57;0.30;;;0.30;;
80981;SDS011;70440;53.064;8.926;2023-07-28T13:57:22;0.30;;;0.30;;
80981;SDS011;70440;53.064;8.926;2023-07-28T13:59:48;0.50;;;0.50;;
80981;SDS011;70440;53.064;8.926;2023-07-28T14:02:14;0.50;;;0.40;;
80981;SDS011;70440;53.064;8.926;2023-07-28T14:04:41;0.20;;;0.20;;
80981;SDS011;70440;53.064;8.926;2023-07-28T14:07:06;0.28;;;0.28;;
80981;SDS011;70440;53.064;8.926;2023-07-28T14:09:32;0.30;;;0.30;;
80981;SDS011;70440;53.064;8.926;2023-07-28T14:11:57;0.30;;;0.20;;
80981;SDS011;70440;53.064;8.926;2023-07-28T14:14:22;0.20;;;0.20;;
80981;SDS011;70440;53.064;8.926;2023-07-28T14:16:48;0.30;;;0.25;;
80981;SDS011;70440;53.064;8.926;2023-07-28T14:19:13;0.20;;;0.20;;
80981;SDS011;70440;53.064;8.926;2023-07-28T14:21:38;0.40;;;0.30;;
80981;SDS011;70440;53.064;8.926;2023-07-28T14:24:07;0.30;;;0.30;;
80981;SDS011;70440;53.064;8.926;2023-07-28T14:28:57;0.10;;;0.10;;
80981;SDS011;70440;53.064;8.926;2023-07-28T14:31:23;0.22;;;0.20;;
80981;SDS011;70440;53.064;8.926;2023-07-28T14:33:48;0.38;;;0.32;;
80981;SDS011;70440;53.064;8.926;2023-07-28T14:36:13;0.20;;;0.20;;
80981;SDS011;70440;53.064;8.926;2023-07-28T14:38:39;0.20;;;0.20;;
80981;SDS011;70440;53.064;8.926;2023-07-28T14:41:04;0.13;;;0.13;;
80981;SDS011;70440;53.064;8.926;2023-07-28T14:43:29;0.20;;;0.20;;
80981;SDS011;70440;53.064;8.926;2023-07-28T14:45:55;0.20;;;0.20;;
80981;SDS011;70440;53.064;8.926;2023-07-28T14:48:20;0.17;;;0.17;;
80981;SDS011;70440;53.064;8.926;2023-07-28T14:50:46;0.20;;;0.20;;
80981;SDS011;70440;53.064;8.926;2023-07-28T14:53:31;0.30;;;0.30;;
80981;SDS011;70440;53.064;8.926;2023-07-28T14:56:00;0.10;;;0.10;;
80981;SDS011;70440;53.064;8.926;2023-07-28T14:58:27;0.20;;;0.20;;
80981;SDS011;70440;53.064;8.926;2023-07-28T15:00:52;0.10;;;0.10;;
80981;SDS011;70440;53.064;8.926;2023-07-28T15:03:18;0.20;;;0.17;;
80981;SDS011;70440;53.064;8.926;2023-07-28T15:05:43;0.30;;;0.30;;
80981;SDS011;70440;53.064;8.926;2023-07-28T15:08:09;0.15;;;0.15;;
80981;SDS011;70440;53.064;8.926;2023-07-28T15:10:34;0.22;;;0.22;;
80981;SDS011;70440;53.064;8.926;2023-07-28T15:12:59;0.30;;;0.30;;